Time;durP1;ratioP1;P1;durP2;ratioP2;P2;SDS_P1;SDS_P2;PMS_P1;PMS_P2;Temp;Humidity;BMP_temperature;BMP_pressure;BME280_temperature;BME280_humidity;BME280_pressure;Samples;Min_cycle;Max_cycle;Signal;HPM_P1;HPM_P2
2023/04/19 00:11:28;;;;;;;17.85;10.05;;;;;;;10.17;69.15;100694.50;30994233;28;96755;-61
2023/04/19 00:26:29;;;;;;;15.05;10.10;;;;;;;10.01;69.12;100678.41;30992278;28;110139;-62
2023/04/19 00:41:29;;;;;;;15.82;9.15;;;;;;;9.77;69.00;100662.06;30991096;28;97476;-61
2023/04/19 00:56:30;;;;;;;12.75;8.93;;;;;;;9.56;69.13;100649.06;30989931;28;97262;-63
2023/04/19 01:11:31;;;;;;;15.33;9.07;;;;;;;9.31;69.09;100638.19;30989205;28;96805;-62
2023/04/19 01:26:31;;;;;;;11.05;7.05;;;;;;;9.02;68.61;100622.47;30987687;28;108469;-64
2023/04/19 01:41:31;;;;;;;17.70;8.77;;;;;;;8.79;68.55;100614.06;30986177;28;99823;-62
2023/04/19 01:56:32;;;;;;;11.65;7.50;;;;;;;8.59;68.24;100597.38;30984931;28;97163;-65
2023/04/19 02:11:32;;;;;;;10.43;6.07;;;;;;;8.38;67.09;100595.78;30982664;28;97251;-63
2023/04/19 02:26:32;;;;;;;15.15;6.85;;;;;;;8.24;65.53;100588.25;30982084;28;103200;-64
2023/04/19 02:41:32;;;;;;;8.93;4.43;;;;;;;8.26;64.45;100594.28;30979464;28;113712;-64
2023/04/19 02:56:33;;;;;;;8.40;5.35;;;;;;;7.93;63.14;100575.25;30979250;28;112074;-65
2023/04/19 03:11:34;;;;;;;13.00;5.35;;;;;;;7.77;62.62;100551.97;30976495;28;97273;-63
2023/04/19 03:26:35;;;;;;;10.70;4.03;;;;;;;7.77;62.57;100550.13;30975405;28;96956;-64
2023/04/19 03:41:35;;;;;;;9.02;4.65;;;;;;;7.56;60.79;100523.81;30971248;28;96979;-64
2023/04/19 03:56:36;;;;;;;7.57;4.75;;;;;;;7.56;61.20;100537.06;30970831;28;103040;-62
2023/04/19 04:11:36;;;;;;;8.32;4.03;;;;;;;7.50;60.90;100536.81;30971049;28;112343;-64
2023/04/19 04:26:38;;;;;;;4.80;3.03;;;;;;;7.30;60.23;100550.06;30981716;28;116324;-64
2023/04/19 04:41:41;;;;;;;5.10;4.00;;;;;;;6.51;62.85;100556.25;30987949;28;97437;-61
2023/04/19 04:56:41;;;;;;;6.43;3.83;;;;;;;6.13;64.01;100548.03;30987670;28;96724;-63
2023/04/19 05:11:41;;;;;;;6.53;4.30;;;;;;;5.94;65.27;100551.38;30902340;28;96624;-63
2023/04/19 05:26:42;;;;;;;8.38;4.03;;;;;;;6.41;65.69;100549.13;30857150;28;97082;-64
2023/04/19 05:41:42;;;;;;;8.80;3.85;;;;;;;6.71;65.44;100531.50;30846980;28;113683;-62
2023/04/19 05:56:43;;;;;;;7.65;3.92;;;;;;;6.70;64.85;100532.47;30950873;28;98020;-63
2023/04/19 06:11:44;;;;;;;9.18;3.80;;;;;;;7.13;64.48;100524.28;30978757;28;105130;-61
2023/04/19 06:26:46;;;;;;;7.30;3.83;;;;;;;7.19;63.08;100531.66;30976290;28;96667;-65
2023/04/19 06:41:46;;;;;;;10.37;3.77;;;;;;;7.72;63.05;100531.19;30974774;28;96797;-64
2023/04/19 06:56:48;;;;;;;5.20;2.95;;;;;;;8.85;62.40;100533.75;30973336;28;96951;-62
2023/04/19 07:11:50;;;;;;;7.63;3.30;;;;;;;9.39;60.33;100531.09;30972504;28;96723;-64
2023/04/19 07:26:50;;;;;;;5.67;3.53;;;;;;;10.63;58.45;100523.78;30971186;28;96802;-61
2023/04/19 07:41:50;;;;;;;8.20;3.72;;;;;;;12.01;55.32;100517.78;30968065;28;107896;-61
2023/04/19 07:56:51;;;;;;;15.95;4.07;;;;;;;13.65;52.10;100499.88;30974586;28;113014;-62
2023/04/19 08:11:52;;;;;;;7.70;4.07;;;;;;;14.75;49.28;100512.66;30987307;28;96789;-61
2023/04/19 08:26:52;;;;;;;6.97;3.87;;;;;;;14.42;47.64;100496.97;30987654;28;96728;-62
2023/04/19 08:41:55;;;;;;;10.55;4.72;;;;;;;12.51;46.71;100511.25;30984832;28;97372;-65
2023/04/19 08:56:59;;;;;;;9.27;4.93;;;;;;;10.83;49.61;100497.69;30985942;28;97081;-61
2023/04/19 09:12:00;;;;;;;9.33;5.60;;;;;;;10.26;50.57;100501.00;30984500;28;96772;-61
2023/04/19 09:27:00;;;;;;;15.85;5.90;;;;;;;10.01;51.04;100487.59;30966080;28;98872;-59
2023/04/19 09:42:01;;;;;;;11.93;5.63;;;;;;;10.07;51.44;100492.25;30980702;28;112016;-60
2023/04/19 09:57:01;;;;;;;9.60;5.65;;;;;;;9.85;52.05;100484.84;30979104;28;96707;-63
2023/04/19 10:12:04;;;;;;;11.18;6.22;;;;;;;9.34;52.89;100498.00;30978632;28;96868;-61
2023/04/19 10:27:09;;;;;;;10.03;6.50;;;;;;;9.46;53.62;100478.13;30979039;28;97687;-60
2023/04/19 10:42:11;;;;;;;13.23;6.50;;;;;;;10.05;53.50;100464.97;30975969;28;96840;-59
2023/04/19 10:57:12;;;;;;;10.50;6.30;;;;;;;10.42;52.90;100466.47;30973618;28;97369;-59
2023/04/19 11:12:15;;;;;;;10.00;7.00;;;;;;;9.77;53.43;100465.19;30972174;28;97297;-60
2023/04/19 11:27:16;;;;;;;13.47;6.53;;;;;;;9.34;54.11;100458.09;30970549;28;96861;-60
2023/04/19 11:42:20;;;;;;;11.48;6.63;;;;;;;8.92;55.68;100459.59;30992179;28;97008;-68
2023/04/19 11:57:28;;;;;;;14.23;7.23;;;;;;;8.43;57.05;100471.38;30993950;28;97535;-60
2023/04/19 12:12:31;;;;;;;10.47;7.77;;;;;;;8.25;58.66;100460.72;30991244;28;97400;-60
2023/04/19 12:27:31;;;;;;;10.53;6.63;;;;;;;8.21;59.40;100472.63;30985796;28;97129;-62
2023/04/19 12:42:32;;;;;;;12.90;8.23;;;;;;;7.86;60.21;100466.22;30878807;28;102147;-64
2023/04/19 12:57:32;;;;;;;14.55;8.25;;;;;;;7.72;61.43;100472.84;30861290;28;96914;-60
2023/04/19 13:12:32;;;;;;;13.93;6.55;;;;;;;7.51;61.89;100474.84;30858817;28;103731;-61
2023/04/19 13:27:33;;;;;;;10.75;6.03;;;;;;;7.44;61.85;100469.28;30858649;28;96817;-65
2023/04/19 13:42:33;;;;;;;11.55;6.72;;;;;;;7.51;62.67;100464.25;30858795;28;97527;-60
2023/04/19 13:57:34;;;;;;;14.77;7.38;;;;;;;7.84;62.15;100476.13;30859795;28;104553;-62
2023/04/19 14:12:35;;;;;;;9.47;6.77;;;;;;;7.94;61.79;100460.19;30935071;28;97309;-65
2023/04/19 14:27:35;;;;;;;12.57;5.53;;;;;;;8.46;61.56;100457.84;30973744;28;97075;-61
2023/04/19 14:42:35;;;;;;;11.70;8.65;;;;;;;8.63;61.18;100455.34;30961456;28;97099;-61
2023/04/19 14:57:36;;;;;;;10.60;6.65;;;;;;;8.86;60.53;100446.91;30965382;28;111278;-61
2023/04/19 15:12:36;;;;;;;8.88;5.45;;;;;;;8.91;59.63;100452.59;30963250;28;97055;-62
2023/04/19 15:27:37;;;;;;;10.00;6.20;;;;;;;8.68;59.73;100447.78;30962103;28;97422;-68
2023/04/19 15:42:37;;;;;;;8.70;5.80;;;;;;;8.50;60.19;100450.38;30962129;28;96838;-64
2023/04/19 15:57:37;;;;;;;7.63;5.10;;;;;;;8.66;59.13;100454.22;30970431;28;96812;-60
2023/04/19 16:12:38;;;;;;;8.32;5.93;;;;;;;8.70;59.21;100460.91;30969584;28;97668;-66
2023/04/19 16:27:43;;;;;;;7.75;4.82;;;;;;;8.30;58.99;100463.78;30941368;28;96798;-67
2023/04/19 16:42:44;;;;;;;6.57;4.60;;;;;;;7.89;59.94;100462.44;30938676;28;97532;-68
2023/04/19 16:57:44;;;;;;;10.10;5.75;;;;;;;7.43;60.20;100486.97;31107217;28;105389;-68
2023/04/19 17:12:44;;;;;;;8.10;5.70;;;;;;;7.28;60.88;100491.06;31107961;28;97570;-67
2023/04/19 17:27:45;;;;;;;8.95;5.25;;;;;;;7.07;61.12;100486.75;31106140;28;96811;-68
2023/04/19 17:42:45;;;;;;;8.95;5.05;;;;;;;6.87;62.13;100498.34;31107025;28;115617;-67
2023/04/19 17:57:46;;;;;;;9.90;5.68;;;;;;;6.75;62.35;100506.41;31106233;28;96586;-68
2023/04/19 18:12:46;;;;;;;8.70;6.15;;;;;;;6.62;62.02;100520.88;31104779;28;96840;-65
2023/04/19 18:27:47;;;;;;;8.98;6.57;;;;;;;6.58;63.14;100536.19;30987669;28;97179;-64
2023/04/19 18:42:47;;;;;;;9.63;6.18;;;;;;;6.50;62.35;100544.81;30974319;28;99080;-61
2023/04/19 18:57:47;;;;;;;10.65;6.38;;;;;;;6.38;62.98;100536.16;30965725;28;96946;-62
2023/04/19 19:12:48;;;;;;;12.02;7.93;;;;;;;6.37;62.94;100539.75;30972799;28;96689;-65
2023/04/19 19:27:52;;;;;;;11.98;6.90;;;;;;;6.37;63.04;100552.13;30892083;28;97432;-63
2023/04/19 19:42:53;;;;;;;10.43;6.70;;;;;;;6.33;63.54;100556.88;30967479;28;97445;-63
2023/04/19 19:57:53;;;;;;;11.48;6.88;;;;;;;6.17;63.77;100560.00;31107087;28;96970;-62
2023/04/19 20:12:55;;;;;;;11.98;8.30;;;;;;;6.16;64.58;100568.91;31116149;28;114079;-61
2023/04/19 20:27:56;;;;;;;17.23;9.98;;;;;;;6.17;65.00;100581.19;31115416;28;97008;-60
2023/04/19 20:42:56;;;;;;;13.48;8.52;;;;;;;6.14;65.28;100562.06;31114697;28;98426;-65
2023/04/19 20:57:56;;;;;;;15.05;10.52;;;;;;;6.02;65.45;100570.09;31114895;28;96849;-63
2023/04/19 21:12:57;;;;;;;14.25;9.65;;;;;;;5.94;65.87;100564.59;31110675;28;97061;-62
2023/04/19 21:27:57;;;;;;;15.23;10.95;;;;;;;5.74;66.56;100561.84;31092543;28;109039;-62
2023/04/19 21:42:57;;;;;;;17.63;10.93;;;;;;;5.90;66.76;100571.94;31109150;28;110752;-66
2023/04/19 21:57:58;;;;;;;15.75;10.20;;;;;;;5.91;67.17;100559.56;31108261;28;113866;-67
2023/04/19 22:13:01;;;;;;;11.90;8.55;;;;;;;5.90;67.14;100574.59;31107202;28;96655;-66
2023/04/19 22:28:01;;;;;;;14.45;8.77;;;;;;;5.99;67.30;100567.72;31105769;28;96693;-61
2023/04/19 22:43:02;;;;;;;13.35;9.73;;;;;;;5.98;67.31;100544.88;31103232;28;97324;-67
2023/04/19 22:58:03;;;;;;;14.85;9.32;;;;;;;5.98;67.92;100552.81;31103198;28;96738;-63
2023/04/19 23:13:04;;;;;;;20.70;13.07;;;;;;;5.87;68.05;100553.69;31102208;28;96858;-65
2023/04/19 23:28:05;;;;;;;17.60;12.65;;;;;;;5.98;68.01;100549.34;31108724;28;96715;-67
2023/04/19 23:43:05;;;;;;;16.20;10.60;;;;;;;6.03;68.04;100531.28;31121007;28;96636;-67
2023/04/19 23:58:05;;;;;;;17.50;11.27;;;;;;;6.13;68.17;100528.69;31120893;28;96717;-66
